createdAt,value
2022-09-09T00:03:26.943Z,14.91
2022-09-09T00:14:26.110Z,14.71
2022-09-09T00:25:27.745Z,14.64
2022-09-09T00:36:29.191Z,14.52
2022-09-09T00:47:31.652Z,14.56
2022-09-09T00:58:33.798Z,14.28
2022-09-09T01:09:35.330Z,14.29
2022-09-09T01:20:35.764Z,14.05
2022-09-09T01:31:35.775Z,13.95
2022-09-09T01:42:36.100Z,13.81
2022-09-09T01:53:38.333Z,13.81
2022-09-09T02:04:40.330Z,13.94
2022-09-09T02:15:41.865Z,13.89
2022-09-09T02:26:43.380Z,13.94
2022-09-09T02:37:44.331Z,13.63
2022-09-09T02:48:46.156Z,13.68
2022-09-09T02:59:45.127Z,13.92
2022-09-09T03:10:23.146Z,14.09
2022-09-09T03:21:22.436Z,14.07
2022-09-09T03:32:24.919Z,14.24
2022-09-09T03:43:25.420Z,14.21
2022-09-09T03:54:24.322Z,14.10
2022-09-09T04:05:26.631Z,14.01
2022-09-09T04:16:26.885Z,14.01
2022-09-09T04:27:30.109Z,14.13
2022-09-09T04:38:27.289Z,14.20
2022-09-09T04:49:22.933Z,14.14
2022-09-09T05:00:24.130Z,14.35
2022-09-09T05:11:14.489Z,14.57
2022-09-09T05:22:08.664Z,14.64
2022-09-09T05:33:10.390Z,15.02
2022-09-09T05:44:13.139Z,15.51
2022-09-09T05:55:12.034Z,15.92
2022-09-09T06:06:13.366Z,16.42
2022-09-09T06:17:15.702Z,16.98
2022-09-09T06:28:17.823Z,16.98
2022-09-09T06:39:18.496Z,17.14
2022-09-09T06:50:18.278Z,17.40
2022-09-09T07:01:13.893Z,17.81
2022-09-09T07:12:14.302Z,18.13
2022-09-09T07:23:10.110Z,17.95
2022-09-09T07:34:02.783Z,18.00
2022-09-09T07:45:00.327Z,17.95
2022-09-09T07:55:55.621Z,18.02
2022-09-09T08:06:48.992Z,17.91
2022-09-09T08:17:49.117Z,18.00
2022-09-09T08:28:43.077Z,18.35
2022-09-09T08:39:27.837Z,18.57
2022-09-09T08:50:20.156Z,18.77
2022-09-09T09:00:54.383Z,18.68
2022-09-09T09:11:52.429Z,19.32
2022-09-09T09:22:52.450Z,19.69
2022-09-09T09:33:51.756Z,20.27
2022-09-09T09:44:42.725Z,20.56
2022-09-09T09:55:17.203Z,20.96
2022-09-09T10:06:12.355Z,21.38
2022-09-09T10:16:46.424Z,22.44
2022-09-09T10:27:44.744Z,23.22
2022-09-09T10:38:30.035Z,22.08
2022-09-09T10:49:23.063Z,22.46
2022-09-09T11:00:11.183Z,22.17
2022-09-09T11:11:06.880Z,21.85
2022-09-09T11:21:40.503Z,21.35
2022-09-09T11:32:14.270Z,21.11
2022-09-09T11:43:06.472Z,21.42
2022-09-09T11:54:04.636Z,21.61
2022-09-09T12:04:39.107Z,21.60
2022-09-09T12:15:34.371Z,21.89
2022-09-09T12:26:24.746Z,21.74
2022-09-09T12:36:58.089Z,21.95
2022-09-09T12:48:02.608Z,21.76
2022-09-09T12:58:59.315Z,21.75
2022-09-09T13:09:51.144Z,21.21
2022-09-09T13:20:47.243Z,21.41
2022-09-09T13:31:39.740Z,21.04
2022-09-09T13:42:24.340Z,20.96
2022-09-09T13:52:59.944Z,20.71
2022-09-09T14:03:38.544Z,20.35
2022-09-09T14:14:28.227Z,20.27
2022-09-09T14:25:07.379Z,20.12
2022-09-09T14:35:52.534Z,19.68
2022-09-09T14:46:27.779Z,19.68
2022-09-09T14:57:23.863Z,19.33
2022-09-09T15:08:12.478Z,19.27
2022-09-09T15:18:59.328Z,19.05
2022-09-09T15:29:50.814Z,19.25
2022-09-09T15:40:50.720Z,19.38
2022-09-09T15:51:49.350Z,19.27
2022-09-09T16:02:48.247Z,19.42
2022-09-09T16:13:51.098Z,19.54
2022-09-09T16:24:46.348Z,19.51
2022-09-09T16:35:44.983Z,19.15
2022-09-09T16:46:40.051Z,19.05
2022-09-09T16:57:17.247Z,18.79
2022-09-09T17:07:53.323Z,18.65
2022-09-09T17:18:45.744Z,18.50
2022-09-09T17:29:42.798Z,18.34
2022-09-09T17:40:40.949Z,18.19
2022-09-09T17:51:37.912Z,18.11
2022-09-09T18:02:25.523Z,18.00
2022-09-09T18:13:19.898Z,18.00
2022-09-09T18:24:12.169Z,18.02
2022-09-09T18:35:09.713Z,18.03
2022-09-09T18:45:45.999Z,17.94
2022-09-09T18:56:21.260Z,17.92
2022-09-09T19:07:20.842Z,18.02
2022-09-09T19:17:56.923Z,17.87
2022-09-09T19:28:32.959Z,17.88
2022-09-09T19:39:33.078Z,17.85
2022-09-09T19:50:25.617Z,17.54
2022-09-09T20:01:12.578Z,17.26
2022-09-09T20:11:49.008Z,17.30
2022-09-09T20:22:42.096Z,17.05
2022-09-09T20:33:36.836Z,16.99
2022-09-09T20:44:25.517Z,16.82
2022-09-09T20:55:25.899Z,16.89
2022-09-09T21:06:12.258Z,16.73
2022-09-09T21:17:05.718Z,16.80
2022-09-09T21:28:01.657Z,16.70
2022-09-09T21:38:59.454Z,16.66
2022-09-09T21:49:53.650Z,16.66
2022-09-09T22:00:38.236Z,16.56
2022-09-09T22:11:15.065Z,16.07
2022-09-09T22:22:14.313Z,16.42
2022-09-09T22:33:09.768Z,16.34
2022-09-09T22:43:49.950Z,16.30
2022-09-09T22:54:44.855Z,16.33
2022-09-09T23:05:44.226Z,16.12
2022-09-09T23:16:41.936Z,16.29
2022-09-09T23:27:20.737Z,16.20
2022-09-09T23:38:21.920Z,16.08
2022-09-09T23:49:00.728Z,16.12
2022-09-09T23:59:57.572Z,16.03
